Time;durP1;ratioP1;P1;durP2;ratioP2;P2;SDS_P1;SDS_P2;PMS_P1;PMS_P2;Temp;Humidity;BMP_temperature;BMP_pressure;BME280_temperature;BME280_humidity;BME280_pressure;Samples;Min_cycle;Max_cycle;Signal;HPM_P1;HPM_P2
2023/10/22 00:02:13;;;;;;;32.10;23.30;;;;;;;11.81;100.00;99273.31;131353;1251;107983;-79
2023/10/22 00:05:19;;;;;;;34.60;24.40;;;;;;;11.82;100.00;99270.92;131601;1251;107706;-78
2023/10/22 00:08:24;;;;;;;33.50;22.70;;;;;;;11.84;100.00;99267.71;131579;1250;107626;-78
2023/10/22 00:11:30;;;;;;;28.10;21.50;;;;;;;11.86;100.00;99261.15;131606;1250;108633;-78
2023/10/22 00:14:37;;;;;;;26.70;21.50;;;;;;;11.90;100.00;99257.69;131474;1250;108760;-81
2023/10/22 00:17:42;;;;;;;29.20;21.70;;;;;;;11.94;100.00;99257.52;131524;1248;107560;-79
2023/10/22 00:20:48;;;;;;;28.70;22.40;;;;;;;11.98;100.00;99257.93;131564;1247;108646;-79
2023/10/22 00:23:54;;;;;;;28.00;21.30;;;;;;;11.98;100.00;99260.58;131544;1251;107208;-81
2023/10/22 00:27:00;;;;;;;27.20;19.50;;;;;;;11.99;100.00;99259.06;131623;1250;108446;-80
2023/10/22 00:30:07;;;;;;;31.70;22.30;;;;;;;12.00;100.00;99258.91;131668;1250;106955;-78
2023/10/22 00:33:12;;;;;;;33.00;24.30;;;;;;;12.03;100.00;99261.61;131545;1250;107670;-79
2023/10/22 00:36:18;;;;;;;31.20;23.50;;;;;;;12.04;100.00;99258.98;131573;1250;106735;-78
2023/10/22 00:39:24;;;;;;;32.30;23.90;;;;;;;12.04;100.00;99258.09;131577;1251;106827;-78
2023/10/22 00:42:29;;;;;;;33.70;23.80;;;;;;;12.04;100.00;99253.89;131450;1251;106877;-78
2023/10/22 00:45:38;;;;;;;29.80;20.30;;;;;;;12.03;100.00;99248.27;131484;1250;105633;-79
2023/10/22 00:48:44;;;;;;;27.50;21.10;;;;;;;12.04;100.00;99241.02;131297;1251;196012;-78
2023/10/22 00:51:50;;;;;;;28.30;21.70;;;;;;;12.05;100.00;99234.14;131514;1248;107512;-79
2023/10/22 00:54:59;;;;;;;27.90;22.00;;;;;;;12.01;100.00;99232.59;131345;1254;108654;-78
2023/10/22 00:58:05;;;;;;;32.60;21.90;;;;;;;12.00;100.00;99232.77;131548;1250;108618;-78
2023/10/22 01:01:11;;;;;;;30.60;20.60;;;;;;;12.00;100.00;99228.34;131620;1250;106515;-78
2023/10/22 01:04:17;;;;;;;32.00;23.00;;;;;;;11.98;100.00;99226.55;131357;1254;108707;-79
2023/10/22 01:07:24;;;;;;;29.40;21.90;;;;;;;11.98;100.00;99229.05;131550;1250;106901;-78
2023/10/22 01:10:29;;;;;;;30.90;22.90;;;;;;;12.00;100.00;99230.23;131533;1260;106722;-78
2023/10/22 01:13:35;;;;;;;29.00;21.80;;;;;;;12.00;100.00;99232.38;131332;1254;108532;-78
2023/10/22 01:16:40;;;;;;;27.80;20.70;;;;;;;11.99;100.00;99229.86;131359;1263;107779;-78
2023/10/22 01:19:46;;;;;;;29.10;21.40;;;;;;;11.98;100.00;99226.67;131391;1251;107831;-79
2023/10/22 01:22:51;;;;;;;32.90;23.00;;;;;;;11.96;100.00;99222.86;131628;1250;107840;-78
2023/10/22 01:25:57;;;;;;;28.70;22.00;;;;;;;11.96;100.00;99221.39;131265;1254;108586;-78
2023/10/22 01:29:03;;;;;;;28.90;22.20;;;;;;;11.98;100.00;99224.04;131575;1248;107449;-78
2023/10/22 01:32:08;;;;;;;30.40;21.30;;;;;;;12.00;100.00;99227.02;131349;1257;107975;-78
2023/10/22 01:35:14;;;;;;;27.00;19.60;;;;;;;12.01;100.00;99229.80;131552;1250;108700;-78
2023/10/22 01:38:19;;;;;;;29.20;20.20;;;;;;;12.04;100.00;99230.32;131553;1250;107750;-79
2023/10/22 01:41:25;;;;;;;28.30;22.10;;;;;;;12.05;100.00;99230.83;131605;1251;106505;-78
2023/10/22 01:44:31;;;;;;;32.30;23.20;;;;;;;12.07;100.00;99230.27;131572;1250;108652;-78
2023/10/22 01:47:37;;;;;;;31.30;23.40;;;;;;;12.06;100.00;99223.98;131553;1263;106699;-79
2023/10/22 01:50:43;;;;;;;30.10;22.00;;;;;;;12.03;100.00;99222.98;131581;1251;108845;-78
2023/10/22 01:53:49;;;;;;;27.30;19.80;;;;;;;12.03;100.00;99224.68;131263;1254;108497;-79
2023/10/22 01:56:55;;;;;;;28.00;20.10;;;;;;;12.06;100.00;99215.61;131549;1251;106996;-79
2023/10/22 02:00:00;;;;;;;30.50;21.90;;;;;;;12.06;100.00;99208.87;131332;1248;106925;-78
2023/10/22 02:03:06;;;;;;;28.40;22.40;;;;;;;12.04;100.00;99201.44;131355;1253;107003;-78
2023/10/22 02:06:16;;;;;;;28.00;21.10;;;;;;;11.98;100.00;99203.92;131548;1248;107025;-79
2023/10/22 02:09:21;;;;;;;27.30;19.90;;;;;;;11.94;100.00;99199.02;131558;1250;107887;-78
2023/10/22 02:12:30;;;;;;;27.20;20.30;;;;;;;11.93;100.00;99202.63;131567;1250;108495;-79
2023/10/22 02:15:36;;;;;;;26.70;20.40;;;;;;;11.92;100.00;99213.20;131638;1251;105669;-78
2023/10/22 02:18:41;;;;;;;25.70;20.80;;;;;;;11.92;100.00;99213.16;131430;1250;107833;-79
2023/10/22 02:21:48;;;;;;;29.10;21.20;;;;;;;11.95;100.00;99216.73;131549;1247;106580;-78
2023/10/22 02:24:54;;;;;;;25.70;19.30;;;;;;;11.97;100.00;99199.27;131660;1250;107860;-79
2023/10/22 02:27:59;;;;;;;26.40;19.90;;;;;;;11.92;100.00;99193.20;131530;1248;106871;-78
2023/10/22 02:31:05;;;;;;;25.70;20.20;;;;;;;11.88;100.00;99198.92;131601;1248;107599;-78
2023/10/22 02:34:13;;;;;;;26.90;20.30;;;;;;;11.90;100.00;99202.45;131576;1251;109219;-78
2023/10/22 02:37:19;;;;;;;26.40;20.80;;;;;;;11.91;100.00;99201.91;131547;1250;108101;-78
2023/10/22 02:40:25;;;;;;;28.00;21.20;;;;;;;11.87;100.00;99199.54;131554;1251;106458;-78
2023/10/22 02:43:31;;;;;;;28.70;20.40;;;;;;;11.86;100.00;99195.25;131541;1251;106590;-78
2023/10/22 02:46:36;;;;;;;24.20;19.00;;;;;;;11.81;100.00;99191.89;131516;1260;107555;-78
2023/10/22 02:49:42;;;;;;;23.40;17.90;;;;;;;11.79;100.00;99197.49;131520;1248;106536;-78
2023/10/22 02:52:48;;;;;;;25.40;19.80;;;;;;;11.83;100.00;99199.15;131543;1250;107669;-79
2023/10/22 02:56:03;;;;;;;24.10;18.00;;;;;;;11.84;100.00;99202.41;131660;1250;107643;-79
2023/10/22 02:59:09;;;;;;;21.90;17.00;;;;;;;11.88;100.00;99208.48;131485;1251;108526;-78
2023/10/22 03:02:15;;;;;;;18.10;14.80;;;;;;;11.96;100.00;99216.66;131283;1254;108663;-78
2023/10/22 03:05:21;;;;;;;18.20;15.10;;;;;;;12.03;100.00;99222.61;131449;1246;108577;-78
2023/10/22 03:08:27;;;;;;;19.50;15.70;;;;;;;12.05;100.00;99221.91;131558;1248;107618;-78
2023/10/22 03:11:32;;;;;;;20.40;16.60;;;;;;;12.05;100.00;99229.27;131330;1253;107630;-78
2023/10/22 03:14:38;;;;;;;20.00;15.90;;;;;;;12.05;100.00;99226.46;131475;1250;106593;-78
2023/10/22 03:17:44;;;;;;;24.20;17.90;;;;;;;11.98;100.00;99217.46;131345;1248;106872;-79
2023/10/22 03:20:50;;;;;;;18.60;15.40;;;;;;;11.92;100.00;99214.44;131501;1250;106939;-78
2023/10/22 03:23:58;;;;;;;20.40;15.60;;;;;;;11.91;100.00;99210.27;131537;1250;105654;-78
2023/10/22 03:27:05;;;;;;;24.50;18.40;;;;;;;11.90;100.00;99214.71;131486;1251;107953;-78
2023/10/22 03:30:13;;;;;;;28.80;20.40;;;;;;;11.88;100.00;99211.34;131441;1250;108282;-80
2023/10/22 03:33:19;;;;;;;25.90;18.40;;;;;;;11.88;100.00;99211.71;131461;1250;108995;-79
2023/10/22 03:36:24;;;;;;;23.90;18.00;;;;;;;11.85;100.00;99203.83;131508;1248;107411;-78
2023/10/22 03:39:30;;;;;;;22.30;16.50;;;;;;;11.83;100.00;99202.60;131501;1250;107677;-78
2023/10/22 03:42:35;;;;;;;30.20;20.30;;;;;;;11.81;100.00;99199.16;131496;1248;106415;-79
2023/10/22 03:45:41;;;;;;;34.90;21.10;;;;;;;11.75;100.00;99196.55;131339;1250;107704;-79
2023/10/22 03:48:46;;;;;;;17.90;14.90;;;;;;;11.74;100.00;99189.64;131478;1248;108617;-79
2023/10/22 03:51:52;;;;;;;16.40;12.70;;;;;;;11.74;100.00;99179.94;131475;1261;107703;-78
2023/10/22 03:54:58;;;;;;;20.60;15.40;;;;;;;11.76;100.00;99182.09;131498;1248;106270;-78
2023/10/22 03:58:03;;;;;;;20.10;14.90;;;;;;;11.79;100.00;99174.68;131453;1250;108466;-78
2023/10/22 04:01:09;;;;;;;15.40;12.10;;;;;;;11.79;100.00;99166.63;131533;1248;107594;-78
2023/10/22 04:04:14;;;;;;;14.00;12.00;;;;;;;11.81;100.00;99165.54;131522;1248;107366;-78
2023/10/22 04:07:20;;;;;;;14.00;11.20;;;;;;;11.82;100.00;99156.94;131459;1251;107429;-78
2023/10/22 04:10:26;;;;;;;14.10;11.10;;;;;;;11.84;100.00;99154.50;131551;1260;107655;-79
2023/10/22 04:13:31;;;;;;;14.70;12.10;;;;;;;11.89;100.00;99153.02;131488;1251;108641;-78
2023/10/22 04:16:37;;;;;;;14.80;11.60;;;;;;;11.91;100.00;99143.47;131489;1250;107666;-78
2023/10/22 04:19:43;;;;;;;15.50;11.70;;;;;;;11.90;100.00;99140.08;131448;1248;107636;-78
2023/10/22 04:22:48;;;;;;;14.90;11.30;;;;;;;11.89;100.00;99131.92;131411;1250;107179;-78
2023/10/22 04:25:54;;;;;;;14.70;11.00;;;;;;;11.89;100.00;99128.76;131443;1251;107639;-78
2023/10/22 04:29:00;;;;;;;12.10;9.90;;;;;;;11.94;100.00;99126.02;131478;1250;107727;-78
2023/10/22 04:32:06;;;;;;;14.20;10.60;;;;;;;11.99;100.00;99115.92;131512;1250;108589;-78
2023/10/22 04:35:13;;;;;;;13.40;10.80;;;;;;;12.03;100.00;99106.42;131496;1248;108427;-78
2023/10/22 04:38:18;;;;;;;12.90;10.30;;;;;;;12.02;100.00;99108.05;131459;1248;108345;-80
2023/10/22 04:41:25;;;;;;;13.00;10.20;;;;;;;12.00;100.00;99103.47;131504;1250;108699;-79
2023/10/22 04:44:30;;;;;;;12.30;10.50;;;;;;;11.94;100.00;99093.38;131523;1248;106350;-79
2023/10/22 04:47:36;;;;;;;10.40;9.00;;;;;;;11.89;100.00;99099.84;131454;1248;108488;-80
2023/10/22 04:50:42;;;;;;;12.00;9.00;;;;;;;11.89;100.00;99092.71;131463;1250;108084;-78
2023/10/22 04:53:48;;;;;;;8.70;7.80;;;;;;;11.85;100.00;99087.16;131581;1250;106531;-78
2023/10/22 04:56:53;;;;;;;10.50;8.30;;;;;;;11.86;100.00;99088.80;131476;1248;106482;-78
2023/10/22 04:59:59;;;;;;;8.70;7.60;;;;;;;11.87;100.00;99088.30;131552;1246;108990;-79
2023/10/22 05:03:07;;;;;;;9.20;7.40;;;;;;;11.91;100.00;99092.45;131463;1248;108543;-79
2023/10/22 05:06:13;;;;;;;7.70;5.90;;;;;;;11.92;100.00;99093.23;131473;1250;108473;-79
2023/10/22 05:09:19;;;;;;;7.80;6.80;;;;;;;11.95;100.00;99089.34;131460;1248;107044;-79
2023/10/22 05:12:25;;;;;;;7.70;6.70;;;;;;;11.98;100.00;99086.59;131448;1250;107177;-79
2023/10/22 05:15:30;;;;;;;6.90;6.10;;;;;;;12.05;100.00;99085.45;131536;1250;108648;-78
2023/10/22 05:18:36;;;;;;;8.00;6.20;;;;;;;12.07;100.00;99089.67;131438;1247;107399;-78
2023/10/22 05:21:42;;;;;;;8.20;6.40;;;;;;;12.09;100.00;99080.67;131442;1250;107732;-78
2023/10/22 05:24:49;;;;;;;8.60;6.80;;;;;;;12.10;100.00;99084.11;131566;1250;107141;-79
2023/10/22 05:27:54;;;;;;;8.80;7.40;;;;;;;12.15;100.00;99085.48;131501;1247;108461;-79
2023/10/22 05:31:00;;;;;;;9.00;7.80;;;;;;;12.19;100.00;99081.02;131483;1250;106233;-79
2023/10/22 05:34:06;;;;;;;7.90;6.80;;;;;;;12.21;100.00;99082.71;131628;1248;105843;-79
2023/10/22 05:37:11;;;;;;;7.10;5.90;;;;;;;12.24;100.00;99082.55;131550;1251;107485;-79
2023/10/22 05:40:17;;;;;;;9.00;6.20;;;;;;;12.27;100.00;99089.63;131585;1250;107794;-79
2023/10/22 05:43:23;;;;;;;6.90;5.70;;;;;;;12.32;100.00;99097.75;131610;1262;107465;-79
2023/10/22 05:46:31;;;;;;;5.80;5.10;;;;;;;12.36;100.00;99097.95;131645;1250;107458;-80
2023/10/22 05:49:37;;;;;;;6.30;5.50;;;;;;;12.38;100.00;99096.98;131651;1250;106957;-79
2023/10/22 05:52:42;;;;;;;7.00;5.80;;;;;;;12.40;100.00;99097.34;131507;1250;108596;-79
2023/10/22 05:55:55;;;;;;;6.70;5.50;;;;;;;12.41;100.00;99099.13;131427;1248;107624;-79
2023/10/22 05:59:04;;;;;;;5.90;5.10;;;;;;;12.42;100.00;99099.90;131540;1250;107525;-79
2023/10/22 06:02:10;;;;;;;5.40;4.90;;;;;;;12.44;100.00;99100.16;131442;1250;106880;-79
2023/10/22 06:05:15;;;;;;;5.90;4.90;;;;;;;12.46;100.00;99101.29;131540;1250;108621;-79
2023/10/22 06:08:21;;;;;;;6.40;5.00;;;;;;;12.46;100.00;99097.30;131339;1250;106299;-78
2023/10/22 06:11:27;;;;;;;6.00;5.40;;;;;;;12.46;100.00;99094.25;131550;1247;109037;-79
2023/10/22 06:14:33;;;;;;;5.40;4.80;;;;;;;12.47;100.00;99095.86;131515;1250;107606;-79
2023/10/22 06:17:38;;;;;;;6.50;5.40;;;;;;;12.49;100.00;99093.16;131501;1248;108457;-78
2023/10/22 06:20:44;;;;;;;8.40;5.70;;;;;;;12.52;100.00;99089.15;131496;1250;107059;-80
2023/10/22 06:23:51;;;;;;;7.60;5.70;;;;;;;12.53;100.00;99087.35;131646;1250;106992;-80
2023/10/22 06:26:57;;;;;;;9.50;5.10;;;;;;;12.53;100.00;99086.65;131624;1250;107301;-81
2023/10/22 06:30:03;;;;;;;9.30;5.50;;;;;;;12.53;100.00;99086.36;131634;1250;107720;-80
2023/10/22 06:33:08;;;;;;;9.10;5.60;;;;;;;12.55;100.00;99084.43;131647;1250;107826;-81
2023/10/22 06:36:19;;;;;;;9.10;5.40;;;;;;;12.56;100.00;99083.45;131633;1250;108561;-80
2023/10/22 06:39:24;;;;;;;23.30;9.50;;;;;;;12.56;100.00;99080.25;131683;1251;108587;-80
2023/10/22 06:42:30;;;;;;;43.10;14.90;;;;;;;12.50;100.00;99076.21;131545;1250;107642;-79
2023/10/22 06:45:37;;;;;;;34.50;12.20;;;;;;;12.48;100.00;99067.96;131685;1250;108652;-77
2023/10/22 06:48:43;;;;;;;15.70;7.80;;;;;;;12.51;100.00;99065.95;131402;1250;106943;-78
2023/10/22 06:51:49;;;;;;;12.40;6.60;;;;;;;12.53;100.00;99057.79;131833;1246;107734;-78
2023/10/22 06:54:55;;;;;;;7.50;5.50;;;;;;;12.55;100.00;99048.13;131762;1250;106488;-80
2023/10/22 06:58:01;;;;;;;5.20;4.40;;;;;;;12.54;100.00;99046.18;131634;1248;106681;-78
2023/10/22 07:01:08;;;;;;;4.60;3.60;;;;;;;12.57;100.00;99040.77;131532;1250;108568;-80
2023/10/22 07:04:13;;;;;;;6.10;4.20;;;;;;;12.63;100.00;99034.84;131670;1263;107250;-79
2023/10/22 07:07:27;;;;;;;4.80;4.20;;;;;;;12.66;100.00;99035.35;131892;1247;107281;-80
2023/10/22 07:10:33;;;;;;;6.20;4.90;;;;;;;12.69;100.00;99027.63;132490;1250;106996;-79
2023/10/22 07:13:39;;;;;;;7.70;5.50;;;;;;;12.67;100.00;99019.09;132184;1250;107826;-80
2023/10/22 07:16:45;;;;;;;6.00;5.00;;;;;;;12.66;100.00;99011.02;131638;1248;109268;-78
2023/10/22 07:19:50;;;;;;;5.40;4.90;;;;;;;12.65;100.00;99004.55;131560;1248;108510;-79
2023/10/22 07:22:58;;;;;;;5.80;4.60;;;;;;;12.68;100.00;99000.08;131473;1251;108649;-80
2023/10/22 07:26:04;;;;;;;6.50;5.00;;;;;;;12.70;100.00;98997.84;131538;1250;106594;-79
2023/10/22 07:29:09;;;;;;;5.60;4.50;;;;;;;12.71;100.00;98993.09;131619;1250;107677;-78
2023/10/22 07:32:16;;;;;;;6.40;4.00;;;;;;;12.73;100.00;98986.44;131597;1251;105519;-77
2023/10/22 07:35:22;;;;;;;5.50;3.80;;;;;;;12.76;100.00;98982.96;131617;1248;106265;-77
2023/10/22 07:38:31;;;;;;;5.30;4.30;;;;;;;12.80;100.00;98975.71;131497;1247;106386;-77
2023/10/22 07:41:37;;;;;;;6.80;4.50;;;;;;;12.87;100.00;98975.55;131626;1248;106584;-77
2023/10/22 07:44:43;;;;;;;6.70;4.50;;;;;;;12.91;100.00;98970.54;131612;1247;108608;-77
2023/10/22 07:47:49;;;;;;;3.40;3.10;;;;;;;12.93;100.00;98970.10;131557;1250;108318;-76
2023/10/22 07:50:55;;;;;;;3.10;2.50;;;;;;;12.94;100.00;98970.63;131584;1248;108462;-78
2023/10/22 07:54:01;;;;;;;3.30;2.80;;;;;;;12.99;100.00;98975.76;131599;1248;107617;-80
2023/10/22 07:57:07;;;;;;;4.40;3.00;;;;;;;13.03;100.00;98975.92;131546;1248;107572;-78
2023/10/22 08:00:14;;;;;;;3.70;3.30;;;;;;;13.06;100.00;98976.03;131629;1247;108701;-78
2023/10/22 08:03:20;;;;;;;5.20;3.90;;;;;;;13.07;100.00;98979.51;131504;1248;108526;-78
2023/10/22 08:06:26;;;;;;;7.20;4.10;;;;;;;13.07;100.00;98983.99;131534;1248;108540;-76
2023/10/22 08:09:32;;;;;;;7.80;4.90;;;;;;;13.10;100.00;98989.68;131297;1251;108030;-76
2023/10/22 08:12:38;;;;;;;6.10;4.70;;;;;;;13.13;100.00;98981.70;131512;1248;107400;-76
2023/10/22 08:15:44;;;;;;;4.50;3.80;;;;;;;13.18;100.00;98981.60;131234;1253;108672;-76
2023/10/22 08:18:49;;;;;;;4.30;3.60;;;;;;;13.23;100.00;98981.04;131517;1248;108450;-77
2023/10/22 08:21:55;;;;;;;3.20;2.60;;;;;;;13.25;100.00;98983.80;131521;1250;107743;-76
2023/10/22 08:25:01;;;;;;;4.70;3.00;;;;;;;13.23;100.00;98981.78;131890;1260;107595;-76
2023/10/22 08:28:07;;;;;;;4.70;3.50;;;;;;;13.20;100.00;98980.31;131535;1248;106680;-76
2023/10/22 08:31:13;;;;;;;5.60;3.80;;;;;;;13.20;100.00;98979.29;131553;1248;108817;-76
2023/10/22 08:34:19;;;;;;;5.40;3.70;;;;;;;13.19;100.00;98973.80;131563;1263;108506;-75
2023/10/22 08:37:24;;;;;;;7.40;5.30;;;;;;;13.18;100.00;98963.83;131580;1250;107667;-77
2023/10/22 08:40:30;;;;;;;4.90;3.60;;;;;;;13.12;100.00;98963.11;131577;1251;107233;-76
2023/10/22 08:43:38;;;;;;;5.90;4.80;;;;;;;13.12;100.00;98960.52;131523;1250;108521;-75
2023/10/22 08:46:44;;;;;;;9.00;4.40;;;;;;;13.13;100.00;98958.14;131539;1248;108529;-77
2023/10/22 08:49:52;;;;;;;7.10;5.50;;;;;;;13.19;100.00;98954.23;131516;1250;108492;-76
2023/10/22 08:52:57;;;;;;;4.40;3.80;;;;;;;13.22;100.00;98952.23;131562;1250;108637;-76
2023/10/22 08:56:04;;;;;;;4.80;3.70;;;;;;;13.15;100.00;98951.83;131510;1250;107465;-76
2023/10/22 08:59:09;;;;;;;4.40;4.00;;;;;;;13.10;100.00;98958.79;131561;1248;108526;-77
2023/10/22 09:02:16;;;;;;;4.80;4.00;;;;;;;13.11;100.00;98954.54;131503;1250;109238;-76
2023/10/22 09:05:22;;;;;;;6.00;4.90;;;;;;;13.11;100.00;98957.19;131660;1250;105921;-75
2023/10/22 09:08:43;;;;;;;7.70;6.90;;;;;;;13.11;100.00;98953.92;131430;1250;107652;-76
2023/10/22 09:11:57;;;;;;;6.00;5.40;;;;;;;13.07;100.00;98948.40;131807;1250;106232;-78
2023/10/22 09:15:03;;;;;;;18.60;16.80;;;;;;;13.07;100.00;98951.83;131710;1247;108614;-78
2023/10/22 09:18:09;;;;;;;11.60;10.40;;;;;;;13.07;100.00;98950.26;131494;1248;106962;-78
2023/10/22 09:21:15;;;;;;;16.20;14.60;;;;;;;13.06;100.00;98947.68;131522;1250;108589;-77
2023/10/22 09:24:21;;;;;;;4.80;4.30;;;;;;;13.07;100.00;98946.92;131581;1250;108574;-78
2023/10/22 09:27:27;;;;;;;4.20;3.70;;;;;;;13.10;100.00;98946.42;131560;1250;106865;-77
2023/10/22 09:30:33;;;;;;;4.90;3.60;;;;;;;13.12;100.00;98944.52;131588;1251;107131;-77
2023/10/22 09:33:41;;;;;;;3.40;3.10;;;;;;;13.12;100.00;98940.08;131787;1247;107499;-79
2023/10/22 09:36:54;;;;;;;3.60;3.20;;;;;;;13.12;100.00;98939.42;131559;1250;107631;-76
2023/10/22 09:40:01;;;;;;;3.20;2.90;;;;;;;13.18;100.00;98942.40;131461;1250;107007;-76
2023/10/22 09:43:08;;;;;;;4.10;3.30;;;;;;;13.20;100.00;98941.71;131536;1250;108512;-76
2023/10/22 09:46:15;;;;;;;3.60;3.20;;;;;;;13.24;100.00;98941.20;131511;1248;106464;-76
2023/10/22 09:49:22;;;;;;;4.00;3.60;;;;;;;13.25;100.00;98942.02;131526;1260;107804;-76
2023/10/22 09:52:38;;;;;;;24.80;22.00;;;;;;;13.18;100.00;98939.44;131551;1250;106696;-78
2023/10/22 09:55:47;;;;;;;7.70;6.10;;;;;;;13.16;100.00;98937.42;131616;1251;108616;-76
2023/10/22 09:59:04;;;;;;;9.10;8.10;;;;;;;13.20;100.00;98936.92;131690;1250;108598;-75
2023/10/22 10:02:13;;;;;;;6.40;4.60;;;;;;;13.20;100.00;98935.00;131532;1250;106952;-76
2023/10/22 10:05:21;;;;;;;6.00;5.40;;;;;;;13.28;100.00;98935.19;131606;1250;108666;-76
2023/10/22 10:08:27;;;;;;;8.00;7.10;;;;;;;13.33;100.00;98931.06;131555;1250;108484;-76
2023/10/22 10:11:34;;;;;;;6.40;5.70;;;;;;;13.36;100.00;98931.77;131554;1250;107835;-75
2023/10/22 10:14:50;;;;;;;3.70;2.80;;;;;;;13.35;100.00;98925.45;131522;1251;108567;-76
2023/10/22 10:17:56;;;;;;;5.60;4.80;;;;;;;13.39;100.00;98923.44;131524;1251;108337;-75
2023/10/22 10:21:39;;;;;;;9.70;6.60;;;;;;;13.40;100.00;98921.02;131498;1248;107667;-76
2023/10/22 10:24:45;;;;;;;7.30;6.00;;;;;;;13.37;100.00;98919.52;131490;1248;107932;-75
2023/10/22 10:27:53;;;;;;;6.30;5.60;;;;;;;13.27;100.00;98920.85;131514;1254;108441;-75
2023/10/22 10:31:31;;;;;;;7.60;6.00;;;;;;;13.19;100.00;98915.66;131501;1250;108057;-75
2023/10/22 10:34:40;;;;;;;10.30;7.40;;;;;;;13.12;100.00;98914.42;131607;1248;107601;-75
2023/10/22 10:38:16;;;;;;;7.10;6.40;;;;;;;13.10;100.00;98916.89;131580;1251;107345;-76
2023/10/22 10:41:53;;;;;;;7.00;5.90;;;;;;;13.07;100.00;98911.35;131567;1250;108720;-76
2023/10/22 10:45:10;;;;;;;5.90;4.90;;;;;;;13.03;100.00;98905.61;131546;1250;107109;-77
2023/10/22 10:48:47;;;;;;;5.30;4.40;;;;;;;12.99;100.00;98909.36;131523;1251;107051;-77
2023/10/22 10:52:01;;;;;;;6.20;5.30;;;;;;;12.96;100.00;98909.17;131621;1251;107374;-76
2023/10/22 10:55:29;;;;;;;6.20;5.10;;;;;;;12.91;100.00;98905.51;131587;1250;106443;-75
2023/10/22 10:58:43;;;;;;;7.40;6.00;;;;;;;12.84;100.00;98904.73;131611;1260;107721;-77
2023/10/22 11:01:59;;;;;;;7.50;5.80;;;;;;;12.78;100.00;98905.83;131468;1253;108445;-75
2023/10/22 11:05:05;;;;;;;9.40;6.30;;;;;;;12.75;100.00;98905.33;131594;1250;106782;-75
2023/10/22 11:08:18;;;;;;;7.80;6.10;;;;;;;12.73;100.00;98904.00;131577;1248;107644;-76
2023/10/22 11:11:23;;;;;;;9.30;6.70;;;;;;;12.66;100.00;98905.86;131581;1250;108681;-75
2023/10/22 11:14:29;;;;;;;7.80;5.70;;;;;;;12.62;100.00;98907.25;131590;1250;107762;-75
2023/10/22 11:17:35;;;;;;;8.10;6.10;;;;;;;12.61;100.00;98905.20;131579;1250;107496;-76
2023/10/22 11:20:41;;;;;;;9.80;6.30;;;;;;;12.61;100.00;98907.82;131578;1249;106784;-76
2023/10/22 11:23:47;;;;;;;7.90;5.80;;;;;;;12.65;100.00;98906.97;131836;1250;107876;-77
2023/10/22 11:26:53;;;;;;;7.40;5.60;;;;;;;12.67;100.00;98909.82;131539;1250;107394;-76
2023/10/22 11:30:00;;;;;;;8.60;6.20;;;;;;;12.66;100.00;98904.71;131513;1250;108558;-76
2023/10/22 11:33:06;;;;;;;8.90;6.20;;;;;;;12.63;100.00;98906.14;131549;1251;108298;-76
2023/10/22 11:36:23;;;;;;;7.10;6.10;;;;;;;12.56;100.00;98909.04;131457;1248;108370;-76
2023/10/22 11:39:35;;;;;;;8.00;5.80;;;;;;;12.51;100.00;98908.89;131566;1250;108402;-76
2023/10/22 11:42:42;;;;;;;6.40;5.40;;;;;;;12.50;100.00;98908.06;131539;1251;108607;-77
2023/10/22 11:45:56;;;;;;;7.60;5.90;;;;;;;12.46;100.00;98910.47;131612;1248;107633;-76
2023/10/22 11:49:03;;;;;;;8.80;6.40;;;;;;;12.42;100.00;98912.09;131673;1250;107781;-75
2023/10/22 11:52:16;;;;;;;10.20;7.90;;;;;;;12.37;100.00;98909.44;131605;1250;107041;-75
2023/10/22 11:55:22;;;;;;;10.50;6.30;;;;;;;12.30;100.00;98909.15;131651;1250;108731;-75
2023/10/22 11:58:28;;;;;;;8.60;6.50;;;;;;;12.28;100.00;98908.77;131547;1251;107673;-76
2023/10/22 12:01:34;;;;;;;11.50;9.00;;;;;;;12.25;100.00;98915.70;131765;1248;107624;-76
2023/10/22 12:04:39;;;;;;;10.60;7.60;;;;;;;12.23;100.00;98912.98;131869;1250;108431;-76
2023/10/22 12:07:45;;;;;;;11.60;7.90;;;;;;;12.20;100.00;98915.13;131465;1260;106556;-76
2023/10/22 12:10:51;;;;;;;8.50;6.70;;;;;;;12.18;100.00;98917.84;131659;1250;107631;-75
2023/10/22 12:13:56;;;;;;;11.70;8.40;;;;;;;12.17;100.00;98917.31;131623;1250;107759;-75
2023/10/22 12:17:02;;;;;;;11.00;8.20;;;;;;;12.18;100.00;98919.08;131682;1250;108644;-76
2023/10/22 12:20:10;;;;;;;8.30;6.60;;;;;;;12.17;100.00;98922.33;131687;1250;108570;-75
2023/10/22 12:23:15;;;;;;;10.80;7.50;;;;;;;12.16;100.00;98923.06;131568;1250;108122;-76
2023/10/22 12:26:21;;;;;;;12.40;8.60;;;;;;;12.16;100.00;98920.88;131663;1251;109324;-76
2023/10/22 12:29:27;;;;;;;14.20;9.30;;;;;;;12.16;100.00;98924.54;131563;1250;108424;-75
2023/10/22 12:32:33;;;;;;;11.30;7.60;;;;;;;12.13;100.00;98922.58;131621;1251;108624;-75
2023/10/22 12:35:41;;;;;;;12.00;8.80;;;;;;;12.13;100.00;98929.09;131520;1250;107948;-76
2023/10/22 12:38:47;;;;;;;19.20;15.30;;;;;;;12.12;100.00;98932.62;131575;1257;108743;-76
2023/10/22 12:41:52;;;;;;;9.80;7.30;;;;;;;12.10;100.00;98935.52;131561;1251;108386;-77
2023/10/22 12:44:58;;;;;;;13.10;8.80;;;;;;;12.09;100.00;98943.75;131534;1250;107872;-75
2023/10/22 12:48:04;;;;;;;11.80;7.40;;;;;;;12.08;100.00;98947.27;131356;1259;263345;-75
2023/10/22 12:51:09;;;;;;;17.10;11.80;;;;;;;12.07;100.00;98946.82;131910;1248;107289;-77
2023/10/22 12:54:15;;;;;;;10.70;8.10;;;;;;;12.10;100.00;98953.91;131613;1248;107696;-77
2023/10/22 12:57:21;;;;;;;12.70;8.00;;;;;;;12.13;100.00;98956.08;131651;1250;107369;-76
2023/10/22 13:00:26;;;;;;;15.80;11.50;;;;;;;12.12;100.00;98963.55;131661;1250;107744;-77
2023/10/22 13:03:32;;;;;;;13.30;10.10;;;;;;;12.11;100.00;98976.09;131615;1250;106605;-77
2023/10/22 13:06:38;;;;;;;12.40;10.30;;;;;;;12.10;100.00;98972.31;131545;1250;106769;-76
2023/10/22 13:09:44;;;;;;;13.20;10.10;;;;;;;12.12;100.00;98968.36;131410;1253;106710;-77
2023/10/22 13:12:50;;;;;;;13.60;10.30;;;;;;;12.11;100.00;98982.88;131551;1250;108618;-79
2023/10/22 13:15:56;;;;;;;12.50;9.50;;;;;;;12.12;100.00;98985.77;131678;1250;107632;-75
2023/10/22 13:19:02;;;;;;;12.90;9.50;;;;;;;12.16;100.00;98991.38;131548;1250;108620;-75
2023/10/22 13:22:08;;;;;;;12.30;10.20;;;;;;;12.19;100.00;98993.35;131860;1250;107739;-75
2023/10/22 13:25:13;;;;;;;15.00;11.80;;;;;;;12.21;100.00;98995.20;131576;1250;107508;-76
2023/10/22 13:28:19;;;;;;;12.00;10.40;;;;;;;12.25;100.00;99011.98;131538;1251;106294;-76
2023/10/22 13:31:25;;;;;;;9.80;8.60;;;;;;;12.26;100.00;99011.42;131574;1251;107071;-75
2023/10/22 13:34:34;;;;;;;9.50;8.50;;;;;;;12.30;100.00;99007.53;131526;1248;108625;-77
2023/10/22 13:37:39;;;;;;;14.70;11.80;;;;;;;12.32;100.00;99020.84;131506;1257;108615;-76
2023/10/22 13:40:45;;;;;;;13.70;12.00;;;;;;;12.31;100.00;99031.27;131534;1250;106694;-77
2023/10/22 13:43:50;;;;;;;16.10;13.70;;;;;;;12.34;100.00;99036.83;131552;1260;108541;-76
2023/10/22 13:46:56;;;;;;;14.90;13.20;;;;;;;12.38;100.00;99051.71;131612;1250;107932;-76
2023/10/22 13:50:02;;;;;;;11.80;10.50;;;;;;;12.44;100.00;99058.42;131511;1250;108554;-77
2023/10/22 13:53:09;;;;;;;12.70;11.40;;;;;;;12.50;100.00;99058.67;131583;1251;107894;-76
2023/10/22 13:56:14;;;;;;;13.00;11.60;;;;;;;12.52;100.00;99057.16;131604;1253;106872;-77
2023/10/22 13:59:20;;;;;;;12.60;10.20;;;;;;;12.55;100.00;99059.73;131586;1251;106635;-79
2023/10/22 14:02:26;;;;;;;10.40;8.90;;;;;;;12.56;100.00;99066.70;131658;1251;106796;-76